createdAt,value
2023-04-25T00:01:52.365Z,8.45
2023-04-25T00:04:19.298Z,12.05
2023-04-25T00:06:45.963Z,9.38
2023-04-25T00:09:12.539Z,9.85
2023-04-25T00:11:39.044Z,11.38
2023-04-25T00:14:05.627Z,10.80
2023-04-25T00:16:34.739Z,7.80
2023-04-25T00:19:02.550Z,7.13
2023-04-25T00:21:29.268Z,6.72
2023-04-25T00:23:56.458Z,7.70
2023-04-25T00:26:22.936Z,8.10
2023-04-25T00:28:49.443Z,9.60
2023-04-25T00:31:15.889Z,7.28
2023-04-25T00:33:42.314Z,7.18
2023-04-25T00:36:08.747Z,8.15
2023-04-25T00:38:35.592Z,7.85
2023-04-25T00:41:01.938Z,8.45
2023-04-25T00:43:33.231Z,7.38
2023-04-25T00:46:01.352Z,7.32
2023-04-25T00:48:28.084Z,5.57
2023-04-25T00:50:56.326Z,5.03
2023-04-25T00:53:23.233Z,8.68
2023-04-25T00:55:53.769Z,5.50
2023-04-25T00:58:22.302Z,6.32
2023-04-25T01:00:51.154Z,5.22
2023-04-25T01:03:20.697Z,8.35
2023-04-25T01:05:47.934Z,7.53
2023-04-25T01:08:14.921Z,7.00
2023-04-25T01:10:41.338Z,5.32
2023-04-25T01:13:08.130Z,9.32
2023-04-25T01:15:36.337Z,8.45
2023-04-25T01:18:03.724Z,8.52
2023-04-25T01:20:30.400Z,8.15
2023-04-25T01:22:56.838Z,9.82
2023-04-25T01:25:24.919Z,10.25
2023-04-25T01:27:51.824Z,10.50
2023-04-25T01:30:18.735Z,9.43
2023-04-25T01:32:45.511Z,12.50
2023-04-25T01:35:12.939Z,13.70
2023-04-25T01:37:41.026Z,9.50
2023-04-25T01:40:08.790Z,11.32
2023-04-25T01:42:36.741Z,10.40
2023-04-25T01:45:03.580Z,13.10
2023-04-25T01:47:31.817Z,16.73
2023-04-25T01:49:59.437Z,14.88
2023-04-25T01:52:25.797Z,18.55
2023-04-25T01:54:54.286Z,18.85
2023-04-25T01:57:20.864Z,21.65
2023-04-25T01:59:47.430Z,14.98
2023-04-25T02:02:13.840Z,16.40
2023-04-25T02:04:40.378Z,22.15
2023-04-25T02:07:06.863Z,13.40
2023-04-25T02:09:33.248Z,16.88
2023-04-25T02:11:59.560Z,15.77
2023-04-25T02:14:26.024Z,15.57
2023-04-25T02:16:53.195Z,14.85
2023-04-25T02:19:19.727Z,16.80
2023-04-25T02:21:46.521Z,12.65
2023-04-25T02:24:12.957Z,17.90
2023-04-25T02:26:39.304Z,17.02
2023-04-25T02:29:05.755Z,16.90
2023-04-25T02:31:32.281Z,10.55
2023-04-25T02:33:58.818Z,17.98
2023-04-25T02:36:25.187Z,13.65
2023-04-25T02:38:51.808Z,14.55
2023-04-25T02:41:18.375Z,19.17
2023-04-25T02:43:44.695Z,15.50
2023-04-25T02:46:11.232Z,20.08
2023-04-25T02:48:37.600Z,17.95
2023-04-25T02:51:04.005Z,18.00
2023-04-25T02:53:30.524Z,20.92
2023-04-25T02:55:59.290Z,20.35
2023-04-25T02:58:26.089Z,18.80
2023-04-25T03:00:52.606Z,18.75
2023-04-25T03:03:19.275Z,14.70
2023-04-25T03:05:47.706Z,16.67
2023-04-25T03:08:14.143Z,17.70
2023-04-25T03:10:40.636Z,14.50
2023-04-25T03:13:06.949Z,16.08
2023-04-25T03:15:33.376Z,18.63
2023-04-25T03:17:59.789Z,13.63
2023-04-25T03:20:26.133Z,18.23
2023-04-25T03:22:52.630Z,23.27
2023-04-25T03:25:19.023Z,12.07
2023-04-25T03:27:45.370Z,15.60
2023-04-25T03:30:12.109Z,15.45
2023-04-25T03:32:38.549Z,16.45
2023-04-25T03:35:06.249Z,20.80
2023-04-25T03:37:32.606Z,20.95
2023-04-25T03:39:58.926Z,22.42
2023-04-25T03:42:25.524Z,16.05
2023-04-25T03:44:52.633Z,19.08
2023-04-25T03:47:19.011Z,15.32
2023-04-25T03:49:45.559Z,13.40
2023-04-25T03:52:11.929Z,15.43
2023-04-25T03:54:38.334Z,15.15
2023-04-25T03:57:04.689Z,19.75
2023-04-25T03:59:31.397Z,17.77
2023-04-25T04:01:58.133Z,15.90
2023-04-25T04:04:24.677Z,20.70
2023-04-25T04:06:51.814Z,17.55
2023-04-25T04:09:18.785Z,18.98
2023-04-25T04:11:45.234Z,18.50
2023-04-25T04:14:11.732Z,16.88
2023-04-25T04:16:38.254Z,15.20
2023-04-25T04:19:04.921Z,19.08
2023-04-25T04:21:31.282Z,18.95
2023-04-25T04:23:58.777Z,16.25
2023-04-25T04:26:25.178Z,15.48
2023-04-25T04:28:52.710Z,11.48
2023-04-25T04:31:20.531Z,17.58
2023-04-25T04:33:47.394Z,16.98
2023-04-25T04:36:13.933Z,16.98
2023-04-25T04:38:42.167Z,18.95
2023-04-25T04:41:08.909Z,18.48
2023-04-25T04:43:35.279Z,34.88
2023-04-25T04:46:02.182Z,19.77
2023-04-25T04:48:29.137Z,15.60
2023-04-25T04:50:55.655Z,16.85
2023-04-25T04:53:22.111Z,20.67
2023-04-25T04:55:48.504Z,20.95
2023-04-25T04:58:15.638Z,16.70
2023-04-25T05:00:43.042Z,14.77
2023-04-25T05:03:09.507Z,12.98
2023-04-25T05:05:36.160Z,14.05
2023-04-25T05:08:02.787Z,18.17
2023-04-25T05:10:29.158Z,16.10
2023-04-25T05:12:55.616Z,19.17
2023-04-25T05:15:21.956Z,15.43
2023-04-25T05:17:48.358Z,14.43
2023-04-25T05:20:15.098Z,14.95
2023-04-25T05:22:42.763Z,16.63
2023-04-25T05:25:10.380Z,17.48
2023-04-25T05:27:36.721Z,15.70
2023-04-25T05:30:03.454Z,20.15
2023-04-25T05:32:29.925Z,13.48
2023-04-25T05:34:56.562Z,17.52
2023-04-25T05:37:22.975Z,20.08
2023-04-25T05:39:49.290Z,22.50
2023-04-25T05:42:15.638Z,16.17
2023-04-25T05:44:42.179Z,14.38
2023-04-25T05:47:08.498Z,17.10
2023-04-25T05:49:35.499Z,19.80
2023-04-25T05:52:01.844Z,16.52
2023-04-25T05:54:28.221Z,13.07
2023-04-25T05:56:54.573Z,14.32
2023-04-25T05:59:21.148Z,15.70
2023-04-25T06:01:48.109Z,18.08
2023-04-25T06:04:14.793Z,21.17
2023-04-25T06:06:41.280Z,11.85
2023-04-25T06:09:07.825Z,14.10
2023-04-25T06:11:34.199Z,13.07
2023-04-25T06:14:00.557Z,18.98
2023-04-25T06:16:27.179Z,20.33
2023-04-25T06:18:53.793Z,11.43
2023-04-25T06:21:20.248Z,13.43
2023-04-25T06:23:46.708Z,17.58
2023-04-25T06:26:13.205Z,13.50
2023-04-25T06:28:39.674Z,14.10
2023-04-25T06:31:06.023Z,16.17
2023-04-25T06:33:32.436Z,14.82
2023-04-25T06:35:58.877Z,16.17
2023-04-25T06:38:25.221Z,18.17
2023-04-25T06:40:52.211Z,12.07
2023-04-25T06:43:18.583Z,13.68
2023-04-25T06:45:48.231Z,15.60
2023-04-25T06:48:14.867Z,13.20
2023-04-25T06:50:41.200Z,14.15
2023-04-25T06:53:09.790Z,12.68
2023-04-25T06:55:36.359Z,11.20
2023-04-25T06:58:02.687Z,13.00
2023-04-25T07:00:29.790Z,11.20
2023-04-25T07:02:56.268Z,14.07
2023-04-25T07:05:22.919Z,13.00
2023-04-25T07:07:49.421Z,14.75
2023-04-25T07:10:16.226Z,9.50
2023-04-25T07:12:42.576Z,11.57
2023-04-25T07:15:11.026Z,14.93
2023-04-25T07:17:37.480Z,14.20
2023-04-25T07:20:04.874Z,10.13
2023-04-25T07:22:31.211Z,11.88
2023-04-25T07:24:57.539Z,10.55
2023-04-25T07:27:23.982Z,9.57
2023-04-25T07:29:50.332Z,12.27
2023-04-25T07:32:16.702Z,10.73
2023-04-25T07:34:43.196Z,11.48
2023-04-25T07:37:09.517Z,9.02
2023-04-25T07:39:36.030Z,10.48
2023-04-25T07:42:03.516Z,11.10
2023-04-25T07:44:31.322Z,9.80
2023-04-25T07:46:57.687Z,13.80
2023-04-25T07:49:24.154Z,13.48
2023-04-25T07:51:50.858Z,7.72
2023-04-25T07:54:18.070Z,14.77
2023-04-25T07:56:52.269Z,10.82
2023-04-25T07:59:19.553Z,12.93
2023-04-25T08:01:45.975Z,9.70
2023-04-25T08:04:12.665Z,9.88
2023-04-25T08:06:39.382Z,10.20
2023-04-25T08:09:05.923Z,8.82
2023-04-25T08:11:32.348Z,13.00
2023-04-25T08:13:58.884Z,5.53
2023-04-25T08:16:25.435Z,9.18
2023-04-25T08:18:52.324Z,6.05
2023-04-25T08:21:19.091Z,8.30
2023-04-25T08:23:45.856Z,7.75
2023-04-25T08:26:12.382Z,6.95
2023-04-25T08:28:39.251Z,9.95
2023-04-25T08:31:05.841Z,10.02
2023-04-25T08:33:33.703Z,9.07
2023-04-25T08:36:00.174Z,8.13
2023-04-25T08:38:26.777Z,8.05
2023-04-25T08:40:53.221Z,8.65
2023-04-25T08:43:20.985Z,8.40
2023-04-25T08:45:48.257Z,7.80
2023-04-25T08:48:16.808Z,11.02
2023-04-25T08:50:54.298Z,6.07
2023-04-25T08:53:28.454Z,7.90
2023-04-25T08:55:57.143Z,11.48
2023-04-25T08:58:24.436Z,10.50
2023-04-25T09:00:52.997Z,6.15
2023-04-25T09:03:19.920Z,7.05
2023-04-25T09:05:46.940Z,13.43
2023-04-25T09:08:13.782Z,9.50
2023-04-25T09:10:41.449Z,6.28
2023-04-25T09:13:07.901Z,9.43
2023-04-25T09:15:34.352Z,15.30
2023-04-25T09:18:01.180Z,9.60
2023-04-25T09:20:27.756Z,8.73
2023-04-25T09:23:07.746Z,22.75
2023-04-25T09:25:41.504Z,9.48
2023-04-25T09:28:07.911Z,5.20
2023-04-25T09:30:37.508Z,8.35
2023-04-25T09:33:08.617Z,10.55
2023-04-25T09:35:41.027Z,8.25
2023-04-25T09:38:13.140Z,6.60
2023-04-25T09:40:46.446Z,5.32
2023-04-25T09:43:23.649Z,5.90
2023-04-25T09:45:52.668Z,5.80
2023-04-25T09:48:21.060Z,8.75
2023-04-25T09:51:05.108Z,5.35
2023-04-25T09:53:33.013Z,6.47
2023-04-25T09:56:03.940Z,8.15
2023-04-25T09:58:32.378Z,5.97
2023-04-25T10:01:01.990Z,8.35
2023-04-25T10:03:31.833Z,5.28
2023-04-25T10:06:01.284Z,8.82
2023-04-25T10:08:34.149Z,4.82
2023-04-25T10:11:03.650Z,4.70
2023-04-25T10:13:31.874Z,5.22
2023-04-25T10:16:05.405Z,4.45
2023-04-25T10:18:33.472Z,6.15
2023-04-25T10:21:02.749Z,6.40
2023-04-25T10:23:31.407Z,3.85
2023-04-25T10:25:58.572Z,3.97
2023-04-25T10:28:25.258Z,6.55
2023-04-25T10:31:04.947Z,5.03
2023-04-25T10:33:39.262Z,4.85
2023-04-25T10:36:13.713Z,5.28
2023-04-25T10:38:40.640Z,4.82
2023-04-25T10:41:11.732Z,5.25
2023-04-25T10:43:45.467Z,7.97
2023-04-25T10:46:19.259Z,5.40
2023-04-25T10:48:59.099Z,5.97
2023-04-25T10:51:51.678Z,6.97
2023-04-25T10:54:24.077Z,5.78
2023-04-25T10:56:51.785Z,3.78
2023-04-25T10:59:19.757Z,4.82
2023-04-25T11:01:56.775Z,5.40
2023-04-25T11:04:26.850Z,5.47
2023-04-25T11:07:06.548Z,11.15
2023-04-25T11:09:35.957Z,4.80
2023-04-25T11:12:02.476Z,4.57
2023-04-25T11:14:28.972Z,5.88
2023-04-25T11:17:00.748Z,3.50
2023-04-25T11:19:28.742Z,4.40
2023-04-25T11:21:59.810Z,6.57
2023-04-25T11:24:28.360Z,3.38
2023-04-25T11:26:55.103Z,5.28
2023-04-25T11:29:27.343Z,2.75
2023-04-25T11:31:56.859Z,6.07
2023-04-25T11:34:23.276Z,4.68
2023-04-25T11:36:49.711Z,5.25
2023-04-25T11:39:16.161Z,4.50
2023-04-25T11:41:45.842Z,4.28
2023-04-25T11:44:12.835Z,3.50
2023-04-25T11:46:39.249Z,4.45
2023-04-25T11:49:05.892Z,4.10
2023-04-25T11:51:46.077Z,4.72
2023-04-25T11:54:13.095Z,3.13
2023-04-25T11:56:43.795Z,3.97
2023-04-25T11:59:10.570Z,4.00
2023-04-25T12:01:39.476Z,3.72
2023-04-25T12:04:14.535Z,4.95
2023-04-25T12:06:43.926Z,3.33
2023-04-25T12:09:14.198Z,2.50
2023-04-25T12:11:47.112Z,3.70
2023-04-25T12:14:21.853Z,7.95
2023-04-25T12:16:49.515Z,3.33
2023-04-25T12:19:21.142Z,3.92
2023-04-25T12:24:24.350Z,6.22
2023-04-25T12:26:59.910Z,6.82
2023-04-25T12:29:31.775Z,6.40
2023-04-25T12:32:04.826Z,3.40
2023-04-25T12:34:33.293Z,4.05
2023-04-25T12:36:59.771Z,5.90
2023-04-25T12:39:26.803Z,3.88
2023-04-25T12:41:57.127Z,3.05
2023-04-25T12:44:23.532Z,7.47
2023-04-25T12:46:50.992Z,5.15
2023-04-25T12:49:19.167Z,4.38
2023-04-25T12:51:46.016Z,3.17
2023-04-25T12:54:12.659Z,4.70
2023-04-25T12:56:39.352Z,2.88
2023-04-25T12:59:05.912Z,5.85
2023-04-25T13:01:34.697Z,7.72
2023-04-25T13:04:02.896Z,3.72
2023-04-25T13:06:31.102Z,5.10
2023-04-25T13:08:57.538Z,5.55
2023-04-25T13:11:23.881Z,3.00
2023-04-25T13:13:50.610Z,5.47
2023-04-25T13:16:17.490Z,3.42
2023-04-25T13:18:43.995Z,4.88
2023-04-25T13:21:12.403Z,2.88
2023-04-25T13:23:39.158Z,3.80
2023-04-25T13:26:05.805Z,2.60
2023-04-25T13:28:32.289Z,4.72
2023-04-25T13:30:59.004Z,3.70
2023-04-25T13:33:25.565Z,4.53
2023-04-25T13:35:54.705Z,3.00
2023-04-25T13:38:22.431Z,4.70
2023-04-25T13:40:49.596Z,4.03
2023-04-25T13:43:16.127Z,5.10
2023-04-25T13:45:42.519Z,4.60
2023-04-25T13:48:09.019Z,3.03
2023-04-25T13:50:36.777Z,5.55
2023-04-25T13:53:03.187Z,16.95
2023-04-25T13:55:29.624Z,6.53
2023-04-25T13:57:56.041Z,3.45
2023-04-25T14:00:22.585Z,83.05
2023-04-25T14:02:50.741Z,20.95
2023-04-25T14:05:17.502Z,14.77
2023-04-25T14:07:43.953Z,5.93
2023-04-25T14:10:10.579Z,6.50
2023-04-25T14:12:37.053Z,5.78
2023-04-25T14:15:04.399Z,3.90
2023-04-25T14:17:30.896Z,4.75
2023-04-25T14:19:57.323Z,2.67
2023-04-25T14:22:23.873Z,5.47
2023-04-25T14:24:50.302Z,4.53
2023-04-25T14:27:16.730Z,7.20
2023-04-25T14:29:43.953Z,2.63
2023-04-25T14:32:11.260Z,3.75
2023-04-25T14:34:37.615Z,5.55
2023-04-25T14:37:04.239Z,3.30
2023-04-25T14:39:30.574Z,5.97
2023-04-25T14:41:57.008Z,4.47
2023-04-25T14:44:23.428Z,10.77
2023-04-25T14:46:52.524Z,3.45
2023-04-25T14:49:19.149Z,4.60
2023-04-25T14:51:45.599Z,3.88
2023-04-25T14:54:12.966Z,4.18
2023-04-25T14:56:39.408Z,7.68
2023-04-25T14:59:05.733Z,4.00
2023-04-25T15:01:32.723Z,6.35
2023-04-25T15:03:59.768Z,4.47
2023-04-25T15:06:27.998Z,6.13
2023-04-25T15:08:54.437Z,4.35
2023-04-25T15:11:21.507Z,3.97
2023-04-25T15:13:47.938Z,3.53
2023-04-25T15:16:14.466Z,5.45
2023-04-25T15:18:41.638Z,7.32
2023-04-25T15:21:08.251Z,2.85
2023-04-25T15:23:34.766Z,6.93
2023-04-25T15:26:01.123Z,6.70
2023-04-25T15:28:27.553Z,6.75
2023-04-25T15:30:54.394Z,6.68
2023-04-25T15:33:20.829Z,4.55
2023-04-25T15:35:47.396Z,5.13
2023-04-25T15:38:13.815Z,7.38
2023-04-25T15:40:41.035Z,3.38
2023-04-25T15:43:08.130Z,5.43
2023-04-25T15:58:00.701Z,5.78
2023-04-25T16:00:27.424Z,3.60
2023-04-25T16:02:54.038Z,4.65
2023-04-25T16:05:20.848Z,4.15
2023-04-25T16:07:47.832Z,4.50
2023-04-25T16:10:19.759Z,3.40
2023-04-25T16:12:48.290Z,6.93
2023-04-25T16:15:14.716Z,3.95
2023-04-25T16:17:41.343Z,3.58
2023-04-25T16:20:12.459Z,3.85
2023-04-25T16:22:40.232Z,5.45
2023-04-25T16:25:07.996Z,5.25
2023-04-25T16:27:35.459Z,4.60
2023-04-25T16:30:02.331Z,5.85
2023-04-25T16:32:28.804Z,4.68
2023-04-25T16:34:56.993Z,3.58
2023-04-25T16:37:25.453Z,6.78
2023-04-25T16:39:51.773Z,2.38
2023-04-25T16:42:18.212Z,6.00
2023-04-25T16:44:44.693Z,8.13
2023-04-25T16:47:12.206Z,6.53
2023-04-25T16:49:41.078Z,6.28
2023-04-25T16:52:07.426Z,6.22
2023-04-25T16:54:33.802Z,4.85
2023-04-25T16:57:01.308Z,4.03
2023-04-25T16:59:27.728Z,5.60
2023-04-25T17:01:54.105Z,7.43
2023-04-25T17:04:20.511Z,5.78
2023-04-25T17:06:46.955Z,7.72
2023-04-25T17:09:13.282Z,4.25
2023-04-25T17:11:39.824Z,4.80
2023-04-25T17:14:06.389Z,4.00
2023-04-25T17:16:37.186Z,3.63
2023-04-25T17:19:05.491Z,5.22
2023-04-25T17:21:32.175Z,3.67
2023-04-25T17:23:59.213Z,4.40
2023-04-25T17:26:26.510Z,4.85
2023-04-25T17:28:54.013Z,3.83
2023-04-25T17:31:22.952Z,3.40
2023-04-25T17:33:49.851Z,5.18
2023-04-25T17:36:16.269Z,4.43
2023-04-25T17:38:42.608Z,5.95
2023-04-25T17:41:10.559Z,5.65
2023-04-25T17:43:36.965Z,3.03
2023-04-25T17:46:03.424Z,2.78
2023-04-25T17:48:31.584Z,7.15
2023-04-25T17:50:58.485Z,4.82
2023-04-25T17:53:25.319Z,4.63
2023-04-25T17:55:51.843Z,5.60
2023-04-25T17:58:18.289Z,3.42
2023-04-25T18:00:44.681Z,3.20
2023-04-25T18:03:11.299Z,3.25
2023-04-25T18:05:37.777Z,2.60
2023-04-25T18:08:05.918Z,6.03
2023-04-25T18:10:33.874Z,11.35
2023-04-25T18:13:00.469Z,3.58
2023-04-25T18:15:27.017Z,3.53
2023-04-25T18:17:53.495Z,4.90
2023-04-25T18:20:20.584Z,4.70
2023-04-25T18:22:47.042Z,4.47
2023-04-25T18:25:13.965Z,2.47
2023-04-25T18:27:41.237Z,6.47
2023-04-25T18:30:10.575Z,5.70
2023-04-25T18:32:37.773Z,6.53
2023-04-25T18:35:04.952Z,7.35
2023-04-25T18:37:31.345Z,4.45
2023-04-25T18:39:58.471Z,5.63
2023-04-25T18:42:24.995Z,4.03
2023-04-25T18:44:51.600Z,3.30
2023-04-25T18:47:18.257Z,4.50
2023-04-25T18:49:45.253Z,3.13
2023-04-25T18:52:12.770Z,5.68
2023-04-25T18:54:39.250Z,3.53
2023-04-25T18:57:06.420Z,5.32
2023-04-25T18:59:33.565Z,5.13
2023-04-25T19:02:05.297Z,6.20
2023-04-25T19:04:32.263Z,3.42
2023-04-25T19:06:58.988Z,6.20
2023-04-25T19:09:25.579Z,6.13
2023-04-25T19:11:52.095Z,3.25
2023-04-25T19:14:18.579Z,3.78
2023-04-25T19:16:45.015Z,4.30
2023-04-25T19:19:11.395Z,10.00
2023-04-25T19:21:37.861Z,3.83
2023-04-25T19:24:05.211Z,3.10
2023-04-25T19:26:32.226Z,5.70
2023-04-25T19:29:13.450Z,6.55
2023-04-25T19:31:41.335Z,5.00
2023-04-25T19:34:09.031Z,4.93
2023-04-25T19:36:38.378Z,7.18
2023-04-25T19:39:07.084Z,7.60
2023-04-25T19:41:38.215Z,5.63
2023-04-25T19:44:07.267Z,5.45
2023-04-25T19:46:35.121Z,8.15
2023-04-25T19:49:01.891Z,6.72
2023-04-25T19:51:28.770Z,7.30
2023-04-25T19:53:55.566Z,6.25
2023-04-25T19:56:22.764Z,8.75
2023-04-25T19:58:49.456Z,6.63
2023-04-25T20:01:17.035Z,8.35
2023-04-25T20:03:43.498Z,6.80
2023-04-25T20:06:11.398Z,4.03
2023-04-25T20:08:37.803Z,5.57
2023-04-25T20:11:04.242Z,4.32
2023-04-25T20:13:31.582Z,8.52
2023-04-25T20:16:00.033Z,4.75
2023-04-25T20:18:29.127Z,6.88
2023-04-25T20:20:55.543Z,5.05
2023-04-25T20:23:22.103Z,6.38
2023-04-25T20:25:48.509Z,6.22
2023-04-25T20:28:14.977Z,4.90
2023-04-25T20:30:41.733Z,6.47
2023-04-25T20:33:09.119Z,6.63
2023-04-25T20:35:35.530Z,4.57
2023-04-25T20:38:01.895Z,4.40
2023-04-25T20:40:28.268Z,7.35
2023-04-25T20:42:56.172Z,7.25
2023-04-25T20:45:24.295Z,5.53
2023-04-25T20:47:50.751Z,9.60
2023-04-25T20:50:17.242Z,4.78
2023-04-25T20:52:44.604Z,6.05
2023-04-25T20:55:11.910Z,5.95
2023-04-25T20:57:38.314Z,4.50
2023-04-25T21:00:25.321Z,6.20
2023-04-25T21:02:52.698Z,10.10
2023-04-25T21:05:22.077Z,6.35
2023-04-25T21:07:49.922Z,5.82
2023-04-25T21:10:17.154Z,5.47
2023-04-25T21:12:50.140Z,6.20
2023-04-25T21:15:21.184Z,8.35
2023-04-25T21:17:48.564Z,8.35
2023-04-25T21:20:17.759Z,6.40
2023-04-25T21:22:53.774Z,6.80
2023-04-25T21:25:31.009Z,6.88
2023-04-25T21:27:58.719Z,6.95
2023-04-25T21:30:26.064Z,7.47
2023-04-25T21:32:53.152Z,4.93
2023-04-25T21:35:21.202Z,5.95
2023-04-25T21:37:47.708Z,8.95
2023-04-25T21:40:14.683Z,6.15
2023-04-25T21:42:42.262Z,6.57
2023-04-25T21:45:09.026Z,9.18
2023-04-25T21:47:35.852Z,10.77
2023-04-25T21:50:02.256Z,11.73
2023-04-25T21:52:28.760Z,16.08
2023-04-25T21:54:55.775Z,11.73
2023-04-25T21:57:22.194Z,13.38
2023-04-25T21:59:48.595Z,11.20
2023-04-25T22:02:15.199Z,11.63
2023-04-25T22:04:47.137Z,15.30
2023-04-25T22:07:14.326Z,12.40
2023-04-25T22:09:53.710Z,11.85
2023-04-25T22:12:21.150Z,12.50
2023-04-25T22:14:47.681Z,10.75
2023-04-25T22:17:14.018Z,9.77
2023-04-25T22:19:40.407Z,10.35
2023-04-25T22:22:06.750Z,8.23
2023-04-25T22:24:33.718Z,10.15
2023-04-25T22:27:00.380Z,11.05
2023-04-25T22:29:26.698Z,9.95
2023-04-25T22:31:53.108Z,7.78
2023-04-25T22:34:19.865Z,9.07
2023-04-25T22:36:46.201Z,7.75
2023-04-25T22:39:15.042Z,5.68
2023-04-25T22:41:41.905Z,8.48
2023-04-25T22:44:08.218Z,7.60
2023-04-25T22:46:34.786Z,8.27
2023-04-25T22:49:01.238Z,10.82
2023-04-25T22:51:27.548Z,6.43
2023-04-25T22:53:53.956Z,10.55
2023-04-25T22:56:20.319Z,6.18
2023-04-25T22:58:46.709Z,8.70
2023-04-25T23:01:13.290Z,7.45
2023-04-25T23:03:40.210Z,6.38
2023-04-25T23:06:06.831Z,6.47
2023-04-25T23:08:33.290Z,7.88
2023-04-25T23:10:59.624Z,6.90
2023-04-25T23:13:26.364Z,7.57
2023-04-25T23:15:53.075Z,6.57
2023-04-25T23:18:19.428Z,9.30
2023-04-25T23:20:46.835Z,6.00
2023-04-25T23:23:13.175Z,6.03
2023-04-25T23:25:42.926Z,7.10
2023-04-25T23:28:09.276Z,9.93
2023-04-25T23:30:35.627Z,7.13
2023-04-25T23:33:02.022Z,6.53
2023-04-25T23:35:28.715Z,9.02
2023-04-25T23:37:55.541Z,8.02
2023-04-25T23:40:22.180Z,6.80
2023-04-25T23:42:48.548Z,9.40
2023-04-25T23:45:16.377Z,5.07
2023-04-25T23:47:43.121Z,6.32
2023-04-25T23:50:10.095Z,6.28
2023-04-25T23:52:36.476Z,5.88
2023-04-25T23:55:05.279Z,8.30
2023-04-25T23:57:32.296Z,7.93
2023-04-25T23:59:58.884Z,8.82
